Time;durP1;ratioP1;P1;durP2;ratioP2;P2;SDS_P1;SDS_P2;PMS_P1;PMS_P2;Temp;Humidity;BMP_temperature;BMP_pressure;BME280_temperature;BME280_humidity;BME280_pressure;Samples;Min_cycle;Max_cycle;Signal;HPM_P1;HPM_P2
2021/06/29 00:01:53;;;;;;;7.10;4.70;;;589.40;2380.80;;;;;;5037304;28;20041;-72
2021/06/29 00:04:19;;;;;;;6.80;4.97;;;589.40;2380.80;;;;;;5038072;28;20041;-72
2021/06/29 00:06:45;;;;;;;8.77;4.75;;;589.30;2380.80;;;;;;5037976;28;20423;-76
2021/06/29 00:09:11;;;;;;;8.02;5.13;;;589.20;2406.40;;;;;;5039819;28;20096;-76
2021/06/29 00:11:37;;;;;;;8.38;5.00;;;589.10;2432.00;;;;;;5035043;28;20055;-76
2021/06/29 00:14:03;;;;;;;8.02;4.82;;;589.10;2432.00;;;;;;5034155;28;20079;-73
2021/06/29 00:16:28;;;;;;;8.20;4.85;;;589.20;2432.00;;;;;;5034182;28;20029;-73
2021/06/29 00:18:54;;;;;;;6.43;4.65;;;589.20;2432.00;;;;;;5033859;28;20045;-73
2021/06/29 00:21:20;;;;;;;7.68;4.65;;;589.30;2432.00;;;;;;5033834;28;20490;-73
2021/06/29 00:23:45;;;;;;;6.57;4.78;;;589.20;2432.00;;;;;;5033821;28;20033;-71
2021/06/29 00:26:11;;;;;;;6.72;4.55;;;589.10;2432.00;;;;;;5033855;28;20394;-73
2021/06/29 00:28:37;;;;;;;7.65;4.88;;;589.20;2432.00;;;;;;5047306;28;20091;-77
2021/06/29 00:31:03;;;;;;;7.40;5.00;;;589.10;2432.00;;;;;;5034334;28;20183;-74
2021/06/29 00:33:29;;;;;;;6.18;4.70;;;589.10;2432.00;;;;;;5034216;28;20531;-76
2021/06/29 00:35:55;;;;;;;5.95;4.80;;;588.90;2432.00;;;;;;5035441;28;20036;-77
2021/06/29 00:38:21;;;;;;;7.15;4.95;;;564.10;2432.00;;;;;;5016803;28;20025;-75
2021/06/29 00:40:47;;;;;;;7.00;5.40;;;564.10;2432.00;;;;;;5034260;28;20121;-73
2021/06/29 00:43:13;;;;;;;7.25;5.03;;;564.10;2432.00;;;;;;5033615;28;20025;-73
2021/06/29 00:45:39;;;;;;;7.82;5.30;;;564.10;2432.00;;;;;;5033516;28;20018;-72
2021/06/29 00:48:05;;;;;;;6.10;5.15;;;564.10;2432.00;;;;;;5033405;28;20025;-73
2021/06/29 00:50:31;;;;;;;6.88;5.15;;;564.10;2432.00;;;;;;5033404;28;20036;-73
2021/06/29 00:52:57;;;;;;;7.20;5.25;;;564.00;2432.00;;;;;;5033251;28;20033;-74
2021/06/29 00:55:22;;;;;;;7.10;5.30;;;563.90;2432.00;;;;;;5040597;28;20100;-73
2021/06/29 00:57:51;;;;;;;7.13;5.30;;;563.90;2432.00;;;;;;5033371;28;20022;-73
2021/06/29 01:00:17;;;;;;;8.57;5.20;;;563.80;2432.00;;;;;;5033023;28;20499;-75
2021/06/29 01:02:43;;;;;;;7.45;4.88;;;563.80;2432.00;;;;;;5038505;28;20028;-72
2021/06/29 01:05:10;;;;;;;6.55;5.25;;;563.80;2432.00;;;;;;5033125;28;20024;-72
2021/06/29 01:07:36;;;;;;;6.15;5.25;;;563.80;2432.00;;;;;;5032878;28;20021;-72
2021/06/29 01:10:07;;;;;;;8.45;5.40;;;563.80;2432.00;;;;;;5033312;28;20044;-73
2021/06/29 01:12:34;;;;;;;7.03;5.47;;;563.80;2432.00;;;;;;5032855;28;20022;-73
2021/06/29 01:15:00;;;;;;;6.10;5.22;;;563.80;2432.00;;;;;;5032072;28;20032;-78
2021/06/29 01:17:26;;;;;;;7.20;5.45;;;563.80;2432.00;;;;;;5051708;28;20479;-82
2021/06/29 01:19:52;;;;;;;9.18;5.40;;;563.70;2432.00;;;;;;5052605;28;20123;-76
2021/06/29 01:22:19;;;;;;;6.55;5.32;;;563.50;2432.00;;;;;;5053150;28;20032;-78
2021/06/29 01:24:57;;;;;;;7.53;5.10;;;563.40;2432.00;;;;;;5052679;28;20071;-73
2021/06/29 01:32:18;;;;;;;6.40;5.43;;;563.20;2432.00;;;;;;5052861;28;20017;-73
2021/06/29 01:34:44;;;;;;;7.50;5.70;;;538.50;2406.40;;;;;;5052594;28;20032;-73
2021/06/29 01:37:11;;;;;;;8.23;5.72;;;563.20;2432.00;;;;;;5052389;28;20032;-73
2021/06/29 01:39:37;;;;;;;6.38;5.53;;;538.50;2406.40;;;;;;5052800;28;20067;-73
2021/06/29 01:42:03;;;;;;;8.20;5.53;;;538.50;2406.40;;;;;;5052812;28;20029;-76
2021/06/29 01:44:32;;;;;;;7.68;5.55;;;538.40;2406.40;;;;;;5052794;28;20031;-76
2021/06/29 01:47:00;;;;;;;9.20;6.03;;;538.40;2406.40;;;;;;5052352;28;20033;-76
2021/06/29 01:49:27;;;;;;;6.78;5.57;;;538.30;2406.40;;;;;;5052210;28;20124;-76
2021/06/29 01:51:54;;;;;;;7.03;5.70;;;538.20;2406.40;;;;;;5052311;28;20040;-76
2021/06/29 01:54:21;;;;;;;7.38;5.30;;;538.20;2406.40;;;;;;5052367;28;20052;-72
2021/06/29 01:56:48;;;;;;;7.03;5.15;;;538.30;2406.40;;;;;;5052475;28;20047;-76
2021/06/29 01:59:18;;;;;;;6.45;5.20;;;538.30;2406.40;;;;;;5052366;28;20025;-73
2021/06/29 02:01:44;;;;;;;6.63;5.07;;;538.40;2406.40;;;;;;5052038;28;20025;-73
2021/06/29 02:04:11;;;;;;;7.63;5.30;;;538.40;2406.40;;;;;;5052180;28;20025;-73
2021/06/29 02:06:38;;;;;;;7.10;5.65;;;538.50;2406.40;;;;;;5052323;28;20024;-72
2021/06/29 02:09:11;;;;;;;9.32;5.65;;;538.50;2406.40;;;;;;5052321;28;20024;-77
2021/06/29 02:11:38;;;;;;;5.85;5.15;;;538.40;2406.40;;;;;;5052306;28;20078;-73
2021/06/29 02:14:04;;;;;;;7.00;5.38;;;538.40;2406.40;;;;;;5052155;28;20117;-78
2021/06/29 02:16:29;;;;;;;7.10;5.43;;;538.40;2406.40;;;;;;5051978;28;20029;-73
2021/06/29 02:18:55;;;;;;;6.32;5.05;;;538.50;2406.40;;;;;;5059066;28;20049;-72
2021/06/29 02:21:21;;;;;;;8.60;5.38;;;538.40;2406.40;;;;;;5071810;28;20035;-72
2021/06/29 02:23:47;;;;;;;6.28;5.47;;;538.30;2406.40;;;;;;5066076;28;20023;-72
2021/06/29 02:26:12;;;;;;;8.75;5.45;;;538.30;2406.40;;;;;;5064293;28;20017;-71
2021/06/29 02:28:38;;;;;;;10.00;5.63;;;538.20;2406.40;;;;;;5058758;28;20103;-71
2021/06/29 02:31:04;;;;;;;7.50;5.50;;;538.20;2406.40;;;;;;5076051;28;20028;-72
2021/06/29 02:33:30;;;;;;;7.78;5.25;;;538.20;2406.40;;;;;;5075787;28;20138;-76
2021/06/29 02:35:55;;;;;;;7.15;5.25;;;538.20;2406.40;;;;;;5075798;28;20032;-76
2021/06/29 02:38:25;;;;;;;6.75;5.10;;;538.20;2406.40;;;;;;5075818;28;20028;-75
2021/06/29 02:40:51;;;;;;;8.90;5.32;;;538.10;2406.40;;;;;;5075764;28;20116;-72
2021/06/29 02:43:17;;;;;;;8.18;5.25;;;538.00;2406.40;;;;;;5075688;28;20451;-72
2021/06/29 02:45:43;;;;;;;7.45;5.28;;;538.00;2406.40;;;;;;5075531;28;20126;-75
2021/06/29 02:48:09;;;;;;;6.53;4.70;;;538.10;2406.40;;;;;;5075669;28;20033;-74
2021/06/29 02:50:35;;;;;;;7.20;5.22;;;538.10;2406.40;;;;;;5075521;28;20059;-79
2021/06/29 02:53:01;;;;;;;7.22;4.90;;;538.10;2406.40;;;;;;5075482;28;20542;-72
2021/06/29 02:55:27;;;;;;;9.13;5.28;;;538.20;2406.40;;;;;;5068238;28;20031;-72
2021/06/29 02:57:52;;;;;;;10.45;5.40;;;538.20;2406.40;;;;;;5064040;28;20052;-71
2021/06/29 03:00:20;;;;;;;8.20;5.47;;;538.20;2406.40;;;;;;5064677;28;20017;-71
2021/06/29 03:02:46;;;;;;;8.52;7.18;;;538.30;2406.40;;;;;;5068649;28;20101;-72
2021/06/29 03:05:14;;;;;;;6.45;4.90;;;538.20;2406.40;;;;;;5069091;28;20514;-71
2021/06/29 03:07:40;;;;;;;7.20;5.40;;;538.30;2406.40;;;;;;5067831;28;20087;-72
2021/06/29 03:10:07;;;;;;;7.97;5.70;;;538.30;2406.40;;;;;;5070687;28;20162;-72
2021/06/29 03:12:33;;;;;;;7.40;4.70;;;538.40;2406.40;;;;;;5065693;28;20426;-72
2021/06/29 03:15:01;;;;;;;8.70;4.85;;;538.40;2406.40;;;;;;5070516;28;20028;-72
2021/06/29 03:17:28;;;;;;;6.45;4.47;;;538.40;2406.40;;;;;;5066476;28;20021;-72
2021/06/29 03:19:53;;;;;;;7.95;4.47;;;538.50;2406.40;;;;;;5070140;28;20040;-72
2021/06/29 03:22:19;;;;;;;6.75;4.45;;;538.50;2406.40;;;;;;5068012;28;20047;-76
2021/06/29 03:24:46;;;;;;;10.30;5.00;;;563.20;2432.00;;;;;;5058950;28;20090;-74
2021/06/29 03:27:12;;;;;;;6.45;4.53;;;563.20;2432.00;;;;;;5055647;28;20025;-75
2021/06/29 03:29:38;;;;;;;7.00;4.75;;;563.20;2432.00;;;;;;5067337;28;20021;-75
2021/06/29 03:32:05;;;;;;;8.07;5.00;;;563.20;2432.00;;;;;;5074761;28;20025;-72
2021/06/29 03:34:30;;;;;;;6.20;4.50;;;563.20;2432.00;;;;;;5074855;28;20024;-73
2021/06/29 03:36:56;;;;;;;7.38;5.22;;;563.30;2432.00;;;;;;5048047;28;20038;-72
2021/06/29 03:39:22;;;;;;;6.40;4.72;;;563.40;2432.00;;;;;;5073472;28;20513;-73
2021/06/29 03:41:49;;;;;;;7.25;4.85;;;563.40;2432.00;;;;;;5071162;28;20103;-76
2021/06/29 03:44:14;;;;;;;7.38;4.82;;;563.60;2432.00;;;;;;5073521;28;20013;-76
2021/06/29 03:46:40;;;;;;;6.47;4.72;;;563.60;2432.00;;;;;;5073388;28;20047;-74
2021/06/29 03:49:06;;;;;;;7.20;5.18;;;563.70;2432.00;;;;;;5072128;28;20078;-77
2021/06/29 03:51:31;;;;;;;8.20;4.68;;;563.70;2432.00;;;;;;5073461;28;20033;-73
2021/06/29 03:53:57;;;;;;;7.55;4.90;;;563.80;2432.00;;;;;;5072040;28;20029;-72
2021/06/29 03:56:24;;;;;;;8.88;5.20;;;563.90;2432.00;;;;;;5067135;28;20470;-72
2021/06/29 03:59:10;;;;;;;6.78;5.28;;;563.80;2432.00;;;;;;5071954;28;20028;-72
2021/06/29 04:01:38;;;;;;;10.63;5.75;;;563.70;2432.00;;;;;;5072314;28;20142;-72
2021/06/29 04:04:04;;;;;;;11.40;5.60;;;563.60;2432.00;;;;;;5068557;28;20037;-72
2021/06/29 04:06:36;;;;;;;11.57;5.72;;;563.50;2432.00;;;;;;5041107;28;20045;-72
2021/06/29 04:09:04;;;;;;;8.65;5.22;;;563.40;2432.00;;;;;;5035645;28;20451;-71
2021/06/29 04:11:30;;;;;;;8.43;5.55;;;563.50;2432.00;;;;;;5073340;28;20386;-72
2021/06/29 04:13:57;;;;;;;9.55;5.40;;;563.30;2432.00;;;;;;5073031;28;20036;-73
2021/06/29 04:16:23;;;;;;;8.63;5.20;;;563.30;2432.00;;;;;;5072032;28;20028;-72
2021/06/29 04:18:49;;;;;;;7.47;5.18;;;563.30;2432.00;;;;;;5072751;28;20432;-73
2021/06/29 04:21:15;;;;;;;7.60;5.10;;;563.30;2432.00;;;;;;5071449;28;20463;-73
2021/06/29 04:23:44;;;;;;;9.35;5.28;;;563.50;2432.00;;;;;;5067590;28;20028;-72
2021/06/29 04:26:11;;;;;;;9.60;5.47;;;563.60;2432.00;;;;;;5065738;28;20433;-72
2021/06/29 04:28:36;;;;;;;8.95;5.13;;;563.80;2432.00;;;;;;5060155;28;20008;-76
2021/06/29 04:31:02;;;;;;;7.50;5.70;;;564.00;2432.00;;;;;;5073732;28;20031;-76
2021/06/29 04:33:28;;;;;;;6.72;5.35;;;564.10;2432.00;;;;;;5073459;28;20431;-75
2021/06/29 04:35:54;;;;;;;8.65;5.47;;;588.90;2432.00;;;;;;5073531;28;20032;-72
2021/06/29 04:38:19;;;;;;;8.82;5.35;;;588.90;2432.00;;;;;;5073638;28;20033;-73
2021/06/29 04:40:45;;;;;;;7.75;5.53;;;589.00;2432.00;;;;;;5073270;28;20028;-73
2021/06/29 04:43:11;;;;;;;7.05;5.50;;;589.00;2432.00;;;;;;5073469;28;20039;-77
2021/06/29 04:45:37;;;;;;;9.40;6.00;;;589.10;2432.00;;;;;;5073325;28;20025;-76
2021/06/29 04:48:03;;;;;;;7.40;5.72;;;589.20;2432.00;;;;;;5073462;28;20138;-73
2021/06/29 04:50:28;;;;;;;9.50;6.10;;;589.40;2432.00;;;;;;5073678;28;20028;-73
2021/06/29 04:52:54;;;;;;;10.45;6.68;;;589.50;2432.00;;;;;;5073151;28;20484;-72
2021/06/29 04:55:20;;;;;;;8.90;6.00;;;589.70;2432.00;;;;;;5066447;28;20376;-73
2021/06/29 04:57:46;;;;;;;9.93;6.47;;;615.00;2432.00;;;;;;5072782;28;20029;-72
2021/06/29 05:00:16;;;;;;;10.13;6.50;;;717.10;2432.00;;;;;;5073015;28;20487;-72
2021/06/29 05:02:42;;;;;;;7.80;6.70;;;793.80;2432.00;;;;;;5067478;28;20035;-73
2021/06/29 05:05:09;;;;;;;9.77;7.00;;;845.40;2304.00;;;;;;5073130;28;20054;-76
2021/06/29 05:07:41;;;;;;;9.48;6.82;;;871.10;2124.80;;;;;;5071214;28;20020;-77
2021/06/29 05:10:09;;;;;;;8.80;6.13;;;896.60;1996.80;;;;;;5054302;28;20025;-76
2021/06/29 05:12:36;;;;;;;9.75;5.90;;;921.80;1894.40;;;;;;5055414;28;20418;-76
2021/06/29 05:15:05;;;;;;;8.18;6.00;;;947.70;1792.00;;;;;;5054119;28;20121;-73
2021/06/29 05:17:31;;;;;;;7.73;6.47;;;973.10;1715.20;;;;;;5054273;28;20049;-73
2021/06/29 05:19:57;;;;;;;9.38;6.32;;;948.10;1689.60;;;;;;5053337;28;20468;-72
2021/06/29 05:22:23;;;;;;;7.95;6.18;;;973.60;1664.00;;;;;;5052632;28;20548;-72
2021/06/29 05:24:49;;;;;;;6.90;6.13;;;998.60;1638.40;;;;;;5052471;28;20411;-73
2021/06/29 05:27:14;;;;;;;7.30;6.25;;;998.90;1612.80;;;;;;5052621;28;20025;-72
2021/06/29 05:29:40;;;;;;;7.05;6.35;;;999.00;1561.60;;;;;;5052623;28;20028;-74
2021/06/29 05:32:06;;;;;;;7.20;6.15;;;1024.20;1561.60;;;;;;5052570;28;20497;-73
2021/06/29 05:34:32;;;;;;;10.57;5.88;;;999.30;1536.00;;;;;;5052614;28;20076;-73
2021/06/29 05:36:57;;;;;;;7.82;5.72;;;947.80;1587.20;;;;;;5052370;28;20053;-72
2021/06/29 05:39:23;;;;;;;9.13;6.00;;;870.70;1740.80;;;;;;5052485;28;20049;-72
2021/06/29 05:41:49;;;;;;;8.90;5.85;;;819.40;1843.20;;;;;;5052334;28;20025;-73
2021/06/29 05:44:14;;;;;;;9.07;5.55;;;768.80;1945.60;;;;;;5052369;28;20017;-74
2021/06/29 05:46:41;;;;;;;6.95;5.57;;;742.60;2022.40;;;;;;5052417;28;20480;-77
2021/06/29 05:49:10;;;;;;;7.80;5.65;;;717.50;2073.60;;;;;;5052006;28;20021;-77
2021/06/29 05:51:37;;;;;;;8.17;5.90;;;716.90;2124.80;;;;;;5052330;28;20364;-74
2021/06/29 05:54:03;;;;;;;8.63;6.72;;;691.80;2150.40;;;;;;5052167;28;20025;-72
2021/06/29 05:56:29;;;;;;;8.23;5.97;;;691.70;2176.00;;;;;;5050968;28;20120;-73
2021/06/29 05:58:55;;;;;;;8.70;5.50;;;691.70;2201.60;;;;;;5047295;28;20107;-73
2021/06/29 06:01:20;;;;;;;9.38;5.90;;;691.70;2227.20;;;;;;5047018;28;20032;-74
2021/06/29 06:03:46;;;;;;;8.60;6.15;;;691.80;2227.20;;;;;;5037258;28;20502;-77
2021/06/29 06:06:12;;;;;;;8.90;5.35;;;691.80;2252.80;;;;;;5016509;28;20018;-77
2021/06/29 06:08:37;;;;;;;8.40;5.43;;;691.70;2227.20;;;;;;5043243;28;20494;-78
2021/06/29 06:11:03;;;;;;;6.80;5.40;;;691.70;2278.40;;;;;;5052027;28;20025;-77
2021/06/29 06:13:29;;;;;;;8.10;5.43;;;691.60;2252.80;;;;;;5052037;28;20533;-72
2021/06/29 06:15:56;;;;;;;10.40;5.70;;;691.60;2304.00;;;;;;5050754;28;20029;-75
2021/06/29 06:18:22;;;;;;;8.07;5.13;;;691.80;2278.40;;;;;;5040143;28;20395;-76
2021/06/29 06:20:48;;;;;;;8.43;5.30;;;691.80;2278.40;;;;;;5037488;28;20037;-75
2021/06/29 06:23:14;;;;;;;6.97;5.50;;;692.00;2278.40;;;;;;5038286;28;20017;-73
2021/06/29 06:25:40;;;;;;;8.60;5.63;;;692.10;2278.40;;;;;;5040232;28;20021;-71
2021/06/29 06:28:06;;;;;;;8.75;5.63;;;716.80;2278.40;;;;;;5034473;28;20025;-72
2021/06/29 06:30:32;;;;;;;7.15;5.30;;;716.80;2278.40;;;;;;5044497;28;20079;-77
2021/06/29 06:32:58;;;;;;;10.30;6.10;;;717.00;2278.40;;;;;;5054315;28;20480;-72
2021/06/29 06:35:23;;;;;;;8.82;5.45;;;717.20;2252.80;;;;;;5056851;28;20104;-74
2021/06/29 06:37:49;;;;;;;9.13;5.60;;;717.30;2278.40;;;;;;5054210;28;20450;-76
2021/06/29 06:40:15;;;;;;;7.63;5.50;;;717.20;2278.40;;;;;;5055400;28;20395;-72
2021/06/29 06:42:41;;;;;;;9.40;5.82;;;717.40;2278.40;;;;;;5055173;28;20021;-72
2021/06/29 06:45:08;;;;;;;9.32;5.60;;;717.60;2278.40;;;;;;5054621;28;20025;-72
2021/06/29 06:47:35;;;;;;;6.70;5.30;;;717.60;2252.80;;;;;;5056843;28;20021;-73
2021/06/29 06:50:01;;;;;;;9.45;5.50;;;742.50;2278.40;;;;;;5054339;28;20036;-77
2021/06/29 06:52:26;;;;;;;10.50;5.50;;;717.70;2252.80;;;;;;5056546;28;20017;-75
2021/06/29 06:54:52;;;;;;;11.30;6.35;;;742.70;2227.20;;;;;;5054398;28;20497;-74
2021/06/29 06:57:18;;;;;;;11.27;6.10;;;742.90;2252.80;;;;;;5056029;28;20028;-73
2021/06/29 06:59:44;;;;;;;8.68;5.65;;;742.90;2252.80;;;;;;5054562;28;20029;-74
2021/06/29 07:02:10;;;;;;;8.18;5.63;;;743.10;2227.20;;;;;;5053888;28;20017;-71
2021/06/29 07:04:35;;;;;;;9.68;5.32;;;743.10;2227.20;;;;;;5056313;28;20104;-72
2021/06/29 07:07:01;;;;;;;8.13;5.55;;;768.00;2227.20;;;;;;5054108;28;20024;-72
2021/06/29 07:09:27;;;;;;;7.78;6.00;;;768.00;2201.60;;;;;;5044881;28;20016;-76
2021/06/29 07:11:53;;;;;;;11.07;5.63;;;768.10;2176.00;;;;;;5054058;28;20025;-76
2021/06/29 07:14:19;;;;;;;8.85;5.90;;;768.40;2150.40;;;;;;5055774;28;20438;-73
2021/06/29 07:16:45;;;;;;;9.70;5.75;;;768.60;2150.40;;;;;;5056499;28;20041;-70
2021/06/29 07:19:12;;;;;;;9.88;5.82;;;794.00;2150.40;;;;;;5057681;28;20052;-75
2021/06/29 07:21:38;;;;;;;12.13;10.75;;;819.60;2099.20;;;;;;5052943;28;20033;-70
2021/06/29 07:24:04;;;;;;;10.15;5.70;;;896.60;1920.00;;;;;;5055102;28;20430;-74
2021/06/29 07:26:30;;;;;;;7.60;5.00;;;998.80;1766.40;;;;;;5054802;28;20083;-74
2021/06/29 07:28:56;;;;;;;7.03;5.10;;;1075.70;1561.60;;;;;;5054962;28;20047;-73
2021/06/29 07:31:22;;;;;;;6.68;4.53;;;1101.50;1484.80;;;;;;5054919;28;20080;-75
2021/06/29 07:33:49;;;;;;;11.43;5.78;;;1126.80;1433.60;;;;;;5054984;28;20048;-71
2021/06/29 07:36:16;;;;;;;7.35;5.13;;;1152.70;1331.20;;;;;;5054792;28;20067;-71
2021/06/29 07:38:45;;;;;;;7.45;5.40;;;1178.10;1280.00;;;;;;5054548;28;20036;-76
2021/06/29 07:41:12;;;;;;;7.25;5.15;;;1152.70;1305.60;;;;;;5053617;28;20108;-74
2021/06/29 07:43:38;;;;;;;6.82;4.88;;;1101.50;1331.20;;;;;;5054833;28;20395;-72
2021/06/29 07:46:04;;;;;;;7.63;5.10;;;1024.70;1408.00;;;;;;5054685;28;20036;-70
2021/06/29 07:48:30;;;;;;;6.25;5.18;;;973.50;1484.80;;;;;;5054835;28;20029;-72
2021/06/29 07:50:56;;;;;;;5.90;4.65;;;947.80;1536.00;;;;;;5054680;28;20483;-74
2021/06/29 07:53:22;;;;;;;6.25;5.07;;;947.90;1510.40;;;;;;5054814;28;20057;-73
2021/06/29 07:55:51;;;;;;;7.32;4.90;;;973.10;1510.40;;;;;;5054690;28;20021;-72
2021/06/29 07:58:17;;;;;;;9.63;5.50;;;1024.90;1459.20;;;;;;5054454;28;20028;-77
2021/06/29 08:00:44;;;;;;;6.72;4.90;;;1101.60;1356.80;;;;;;5054171;28;20395;-74
2021/06/29 08:03:10;;;;;;;7.55;4.85;;;1152.40;1305.60;;;;;;5054221;28;20021;-70
2021/06/29 08:05:36;;;;;;;7.70;4.82;;;1178.10;1254.40;;;;;;5054391;28;20043;-72
2021/06/29 08:08:05;;;;;;;6.30;4.85;;;1203.30;1254.40;;;;;;5054252;28;20122;-76
2021/06/29 08:10:31;;;;;;;6.38;4.75;;;1204.10;1228.80;;;;;;5054529;28;20083;-78
2021/06/29 08:12:57;;;;;;;6.90;4.90;;;1229.50;1177.60;;;;;;5054017;28;20025;-72
2021/06/29 08:15:23;;;;;;;5.85;4.65;;;1255.00;1177.60;;;;;;5054359;28;20037;-71
2021/06/29 08:17:48;;;;;;;7.07;4.45;;;1280.90;1126.40;;;;;;5053950;28;20387;-73
2021/06/29 08:20:16;;;;;;;7.25;5.00;;;1305.90;1126.40;;;;;;5071706;28;20502;-71
2021/06/29 08:22:43;;;;;;;6.80;4.90;;;1255.00;1126.40;;;;;;5073771;28;20050;-73
2021/06/29 08:25:10;;;;;;;5.72;5.07;;;1254.80;1152.00;;;;;;5060022;28;20025;-72
2021/06/29 08:27:37;;;;;;;6.80;4.57;;;1255.30;1126.40;;;;;;5064828;28;20051;-77
2021/06/29 08:30:05;;;;;;;7.05;5.00;;;1305.90;1100.80;;;;;;5069152;28;20077;-76
2021/06/29 08:32:31;;;;;;;8.23;4.83;;;1305.90;1075.20;;;;;;5073823;28;20021;-76
2021/06/29 08:34:56;;;;;;;6.88;4.90;;;1356.80;1100.80;;;;;;5073804;28;20031;-73
2021/06/29 08:37:22;;;;;;;6.60;4.70;;;1357.70;1075.20;;;;;;5073530;28;20016;-77
2021/06/29 08:39:49;;;;;;;6.88;4.90;;;1357.20;1100.80;;;;;;5073539;28;20092;-77
2021/06/29 08:42:19;;;;;;;9.18;4.90;;;1331.70;1100.80;;;;;;5073301;28;20044;-75
2021/06/29 08:44:45;;;;;;;6.00;4.95;;;1255.10;1100.80;;;;;;5073773;28;20035;-73
2021/06/29 08:47:10;;;;;;;6.93;5.30;;;1178.00;1152.00;;;;;;5073234;28;20418;-74
2021/06/29 08:49:37;;;;;;;7.72;5.18;;;1101.50;1228.80;;;;;;5073322;28;20047;-73
2021/06/29 08:52:08;;;;;;;6.65;5.55;;;1075.50;1254.40;;;;;;5073192;28;20024;-74
2021/06/29 08:54:35;;;;;;;7.63;5.57;;;999.30;1331.20;;;;;;5072873;28;20398;-73
2021/06/29 08:57:02;;;;;;;8.70;5.22;;;998.50;1382.40;;;;;;5066667;28;20031;-78
2021/06/29 08:59:29;;;;;;;8.10;5.43;;;973.20;1382.40;;;;;;5073080;28;20024;-72
2021/06/29 09:01:55;;;;;;;7.68;5.70;;;947.80;1382.40;;;;;;5069766;28;20025;-71
2021/06/29 09:04:44;;;;;;;7.47;5.60;;;922.40;1433.60;;;;;;5070699;28;20021;-72
2021/06/29 09:07:16;;;;;;;9.10;5.93;;;922.00;1459.20;;;;;;5073004;28;20258;-71
2021/06/29 09:09:47;;;;;;;6.32;5.72;;;896.60;1459.20;;;;;;5072921;28;20021;-72
2021/06/29 09:12:13;;;;;;;7.78;5.55;;;896.40;1484.80;;;;;;5073200;28;20028;-72
2021/06/29 09:14:39;;;;;;;7.80;5.90;;;896.80;1459.20;;;;;;5073187;28;20740;-82
2021/06/29 09:17:19;;;;;;;7.53;5.78;;;896.10;1484.80;;;;;;5072829;28;20414;-81
2021/06/29 09:19:45;;;;;;;9.77;6.03;;;871.10;1536.00;;;;;;5072479;28;20058;-79
2021/06/29 09:22:32;;;;;;;7.10;5.57;;;871.30;1510.40;;;;;;5072657;28;20040;-73
2021/06/29 09:25:01;;;;;;;10.90;6.18;;;896.20;1510.40;;;;;;5058428;28;20483;-73
2021/06/29 09:27:44;;;;;;;7.38;5.88;;;896.00;1510.40;;;;;;5065142;28;20023;-76
2021/06/29 09:30:35;;;;;;;6.63;5.60;;;896.20;1536.00;;;;;;5051327;28;20048;-76
2021/06/29 09:33:38;;;;;;;7.75;6.15;;;896.20;1536.00;;;;;;5061445;28;20086;-75
2021/06/29 09:36:06;;;;;;;7.75;5.95;;;871.30;1510.40;;;;;;4988790;28;20400;-75
2021/06/29 09:38:38;;;;;;;8.05;6.10;;;896.00;1536.00;;;;;;5062833;28;20020;-73
2021/06/29 09:41:06;;;;;;;10.77;5.75;;;871.20;1536.00;;;;;;5072746;28;20032;-76
2021/06/29 09:43:39;;;;;;;8.13;6.18;;;871.20;1510.40;;;;;;5072613;28;20020;-72
2021/06/29 09:46:08;;;;;;;7.30;5.90;;;896.10;1536.00;;;;;;5072550;28;20027;-72
2021/06/29 09:48:55;;;;;;;6.80;5.90;;;896.50;1510.40;;;;;;5072723;28;20031;-77
2021/06/29 09:51:27;;;;;;;7.57;6.07;;;896.50;1510.40;;;;;;5050478;28;20028;-77
2021/06/29 09:53:55;;;;;;;7.95;6.10;;;896.50;1484.80;;;;;;5072074;28;20036;-72
2021/06/29 09:56:32;;;;;;;7.05;6.15;;;896.50;1459.20;;;;;;5057689;28;20495;-71
2021/06/29 09:58:59;;;;;;;7.18;5.82;;;896.50;1484.80;;;;;;5053585;28;20029;-72
2021/06/29 10:01:31;;;;;;;6.75;5.72;;;896.40;1484.80;;;;;;5052944;28;20028;-72
2021/06/29 10:04:01;;;;;;;9.48;6.40;;;896.40;1484.80;;;;;;5053318;28;20029;-71
2021/06/29 10:06:29;;;;;;;9.55;6.55;;;896.40;1484.80;;;;;;5052947;28;20021;-73
2021/06/29 10:09:05;;;;;;;8.63;6.22;;;896.50;1484.80;;;;;;5053044;28;20491;-72
2021/06/29 10:11:33;;;;;;;6.75;5.68;;;896.50;1459.20;;;;;;5039862;28;20549;-73
2021/06/29 10:14:02;;;;;;;6.53;5.72;;;896.50;1459.20;;;;;;5052903;28;20488;-74
2021/06/29 10:16:31;;;;;;;7.15;5.85;;;896.30;1459.20;;;;;;5053766;28;20105;-73
2021/06/29 10:21:26;;;;;;;8.30;5.70;;;896.40;1459.20;;;;;;5051933;28;20025;-72
2021/06/29 10:23:57;;;;;;;10.52;5.78;;;896.30;1459.20;;;;;;5046311;28;20078;-72
2021/06/29 10:26:25;;;;;;;8.10;5.80;;;896.40;1459.20;;;;;;5051714;28;20120;-72
2021/06/29 10:28:52;;;;;;;9.10;6.05;;;896.60;1459.20;;;;;;5051828;28;20076;-71
2021/06/29 10:31:30;;;;;;;9.00;6.18;;;896.80;1459.20;;;;;;5051963;28;20040;-73
2021/06/29 10:33:59;;;;;;;7.40;5.70;;;896.50;1459.20;;;;;;5051735;28;20029;-72
2021/06/29 10:36:26;;;;;;;8.02;5.82;;;896.70;1459.20;;;;;;5052022;28;20029;-73
2021/06/29 10:38:53;;;;;;;10.13;6.35;;;896.90;1433.60;;;;;;5052071;28;20364;-70
2021/06/29 10:41:21;;;;;;;8.82;5.93;;;896.90;1484.80;;;;;;5051881;28;20032;-72
2021/06/29 10:43:48;;;;;;;8.00;5.85;;;896.80;1459.20;;;;;;5052044;28;20029;-72
2021/06/29 10:46:29;;;;;;;7.90;5.82;;;896.90;1459.20;;;;;;5051899;28;20059;-72
2021/06/29 10:48:56;;;;;;;11.65;6.13;;;896.90;1433.60;;;;;;5051743;28;20021;-76
2021/06/29 10:51:39;;;;;;;8.15;5.78;;;921.60;1459.20;;;;;;5055264;28;20078;-74
2021/06/29 10:54:38;;;;;;;7.40;5.82;;;921.60;1459.20;;;;;;5050372;28;20021;-71
2021/06/29 10:57:07;;;;;;;9.15;5.55;;;896.90;1433.60;;;;;;5054312;28;20017;-77
2021/06/29 10:59:35;;;;;;;7.32;5.68;;;921.60;1459.20;;;;;;5046948;28;20028;-76
2021/06/29 11:02:01;;;;;;;9.80;5.30;;;921.70;1433.60;;;;;;5055360;28;20475;-75
2021/06/29 11:04:59;;;;;;;7.18;5.72;;;921.70;1459.20;;;;;;5055307;28;20378;-72
2021/06/29 11:07:39;;;;;;;9.52;5.75;;;921.70;1459.20;;;;;;5055489;28;20078;-77
2021/06/29 11:10:06;;;;;;;;;;;921.60;1433.60;;;;;;5055777;28;20021;-70
2021/06/29 11:12:53;;;;;;;8.50;5.63;;;921.70;1459.20;;;;;;5055538;28;20274;-71
2021/06/29 11:15:44;;;;;;;9.02;5.75;;;921.70;1459.20;;;;;;5056038;28;20061;-71
2021/06/29 11:18:11;;;;;;;7.72;5.90;;;921.80;1484.80;;;;;;5055827;28;20371;-72
2021/06/29 11:20:46;;;;;;;8.02;5.55;;;921.90;1433.60;;;;;;5067524;28;20028;-76
2021/06/29 11:23:24;;;;;;;9.90;5.70;;;921.70;1433.60;;;;;;5066376;28;20095;-71
2021/06/29 11:25:53;;;;;;;10.57;5.57;;;921.90;1433.60;;;;;;5047130;28;20043;-79
2021/06/29 11:28:36;;;;;;;8.70;5.80;;;921.90;1433.60;;;;;;5056763;28;20428;-78
2021/06/29 11:31:05;;;;;;;7.13;5.03;;;922.10;1433.60;;;;;;5057441;28;20463;-78
2021/06/29 11:33:34;;;;;;;9.43;5.80;;;922.20;1433.60;;;;;;5058824;28;20025;-73
2021/06/29 11:36:00;;;;;;;9.02;5.15;;;922.50;1433.60;;;;;;5056974;28;20029;-80
2021/06/29 11:38:35;;;;;;;8.00;5.30;;;922.50;1356.80;;;;;;5056950;28;20025;-82
2021/06/29 11:41:32;;;;;;;9.10;6.05;;;947.30;1382.40;;;;;;5057006;28;20057;-80
2021/06/29 11:44:07;;;;;;;9.10;5.53;;;948.10;1331.20;;;;;;5058831;28;20360;-73
2021/06/29 11:46:59;;;;;;;7.70;5.47;;;973.10;1356.80;;;;;;5056987;28;20029;-79
2021/06/29 11:49:40;;;;;;;8.50;5.47;;;973.30;1331.20;;;;;;5044107;28;20025;-78
2021/06/29 11:52:12;;;;;;;10.00;5.35;;;973.60;1331.20;;;;;;5043916;28;20028;-71
2021/06/29 11:54:44;;;;;;;7.32;5.70;;;973.60;1331.20;;;;;;5046421;28;20105;-72
2021/06/29 11:57:29;;;;;;;7.60;5.70;;;973.70;1331.20;;;;;;5042295;28;20018;-72
2021/06/29 12:00:00;;;;;;;9.25;5.68;;;973.70;1331.20;;;;;;5043207;28;20017;-71
2021/06/29 12:02:28;;;;;;;7.25;5.10;;;998.50;1356.80;;;;;;5045033;28;20029;-72
2021/06/29 12:05:01;;;;;;;8.82;5.30;;;973.70;1280.00;;;;;;5030179;28;20018;-72
2021/06/29 12:07:45;;;;;;;8.10;5.53;;;973.70;1331.20;;;;;;5040754;28;20194;-74
2021/06/29 12:10:27;;;;;;;6.45;4.68;;;973.50;1305.60;;;;;;5036960;28;20071;-73
2021/06/29 12:13:03;;;;;;;8.13;5.00;;;973.70;1254.40;;;;;;5037222;28;20025;-71
2021/06/29 12:15:36;;;;;;;9.32;5.38;;;973.70;1305.60;;;;;;5035147;28;20061;-73
2021/06/29 12:18:12;;;;;;;8.18;5.10;;;973.50;1331.20;;;;;;5039697;28;20017;-72
2021/06/29 12:20:48;;;;;;;7.60;5.07;;;973.70;1305.60;;;;;;5042410;28;20539;-73
2021/06/29 12:23:16;;;;;;;8.00;5.32;;;998.40;1305.60;;;;;;5039564;28;20112;-75
2021/06/29 12:25:45;;;;;;;8.75;4.93;;;998.40;1305.60;;;;;;5046639;28;20025;-73
2021/06/29 12:28:16;;;;;;;6.68;5.10;;;998.50;1305.60;;;;;;5048252;28;20021;-71
2021/06/29 12:30:47;;;;;;;8.48;5.30;;;998.50;1331.20;;;;;;5038196;28;20036;-73